Terminal Aerodrome Forecast
Issued by NWS Hastings, NE

Home | Current Version | Previous Version | Text Only | Print | Product List | Glossary On
Versions: 1 2 3 4 5 6 7 8 9 10 11 12 13 14 15 16 17 18 19 20 21 22 23 24 25 26 27 28
000
FTUS43 KGID 040802 AAB
TAFGRI
TAF AMD
KGRI 040802Z 0408/0506 12006KT 6SM BR SCT020 BKN150
      TEMPO 0409/0412 BKN020
     FM041400 14011KT P6SM BKN150
     FM041900 15010KT P6SM VCTS BKN060 BKN120CB=

USA.gov is the U.S. government's official web portal to all federal, state and local government web resources and services.